Time;durP1;ratioP1;P1;durP2;ratioP2;P2;SDS_P1;SDS_P2;PMS_P1;PMS_P2;Temp;Humidity;BMP_temperature;BMP_pressure;BME280_temperature;BME280_humidity;BME280_pressure;Samples;Min_cycle;Max_cycle;Signal;HPM_P1;HPM_P2
2023/10/24 00:02:15;;;;;;;5.28;1.88;;;;;;;16.25;53.83;101172.34;5041213;28;20037;-79
2023/10/24 00:04:48;;;;;;;3.17;1.35;;;;;;;16.20;53.87;101176.66;5042482;28;20065;-77
2023/10/24 00:07:17;;;;;;;8.40;1.42;;;;;;;16.14;53.81;101172.19;5043247;28;20122;-77
2023/10/24 00:09:48;;;;;;;8.00;1.05;;;;;;;16.10;52.89;101167.78;5031664;28;20053;-77
2023/10/24 00:12:20;;;;;;;6.72;1.02;;;;;;;16.06;54.13;101166.03;5028403;28;20601;-78
2023/10/24 00:14:51;;;;;;;3.05;1.60;;;;;;;16.04;54.60;101179.03;5029336;28;20500;-78
2023/10/24 00:17:22;;;;;;;2.90;0.80;;;;;;;16.02;52.20;101178.13;5033204;28;20075;-76
2023/10/24 00:19:53;;;;;;;2.03;1.23;;;;;;;16.03;53.03;101169.44;5034038;28;20049;-75
2023/10/24 00:22:21;;;;;;;6.68;1.50;;;;;;;16.02;52.19;101172.06;5029930;28;20052;-74
2023/10/24 00:24:53;;;;;;;2.50;0.88;;;;;;;15.99;54.31;101166.75;5042477;28;20608;-75
2023/10/24 00:27:30;;;;;;;3.70;1.27;;;;;;;15.96;52.28;101172.81;5036073;28;20053;-75
2023/10/24 00:29:59;;;;;;;4.22;1.52;;;;;;;15.91;52.65;101174.50;5034661;28;20358;-76
2023/10/24 00:32:33;;;;;;;8.13;1.75;;;;;;;15.86;54.02;101171.81;5037316;28;20115;-75
2023/10/24 00:35:03;;;;;;;5.03;1.50;;;;;;;15.82;55.50;101177.84;5039558;28;20156;-76
2023/10/24 00:37:32;;;;;;;2.22;1.10;;;;;;;15.77;54.74;101176.91;5036479;28;20052;-75
2023/10/24 00:40:02;;;;;;;5.03;1.25;;;;;;;15.72;56.64;101188.16;5028270;28;20053;-75
2023/10/24 00:42:31;;;;;;;6.80;1.42;;;;;;;15.67;59.53;101196.72;5033067;28;21143;-73
2023/10/24 00:44:59;;;;;;;5.30;1.50;;;;;;;15.60;56.71;101194.88;5041635;28;20756;-74
2023/10/24 00:47:28;;;;;;;4.72;1.30;;;;;;;15.55;56.32;101206.09;5027133;28;20534;-77
2023/10/24 00:49:57;;;;;;;5.97;1.38;;;;;;;15.47;55.57;101201.63;5039745;28;20053;-76
2023/10/24 00:52:28;;;;;;;2.70;0.85;;;;;;;15.44;56.50;101198.97;5033682;28;20056;-79
2023/10/24 00:55:02;;;;;;;8.38;2.08;;;;;;;15.38;56.29;101192.78;5027180;28;20050;-80
2023/10/24 00:57:31;;;;;;;10.05;2.03;;;;;;;15.36;57.34;101207.50;5030295;28;20049;-82
2023/10/24 01:00:00;;;;;;;8.15;2.22;;;;;;;15.35;57.42;101213.59;5041960;28;20041;-81
2023/10/24 01:02:28;;;;;;;9.50;1.65;;;;;;;15.32;57.83;101210.91;5028753;28;20103;-80
2023/10/24 01:05:03;;;;;;;7.15;1.58;;;;;;;15.31;57.33;101211.78;5038180;28;20045;-77
2023/10/24 01:07:34;;;;;;;5.68;1.60;;;;;;;15.28;58.36;101210.88;5040304;28;20052;-79
2023/10/24 01:10:03;;;;;;;3.13;1.17;;;;;;;15.25;61.22;101210.78;5028727;28;20137;-77
2023/10/24 01:12:31;;;;;;;6.07;1.55;;;;;;;15.20;59.54;101215.06;5028203;28;20046;-76
2023/10/24 01:15:04;;;;;;;8.07;1.13;;;;;;;15.16;57.64;101213.25;5026648;28;20053;-77
2023/10/24 01:17:32;;;;;;;5.53;1.60;;;;;;;15.15;66.34;101214.09;5031456;28;20090;-76
2023/10/24 01:20:02;;;;;;;2.92;1.48;;;;;;;15.12;66.26;101215.75;5030417;28;20102;-77
2023/10/24 01:22:34;;;;;;;3.72;1.48;;;;;;;15.07;64.88;101215.69;5035996;28;20061;-76
2023/10/24 01:25:11;;;;;;;8.40;1.60;;;;;;;15.03;63.16;101219.09;5028354;28;20764;-77
2023/10/24 01:27:42;;;;;;;6.38;1.20;;;;;;;14.99;60.38;101225.09;5032574;28;20570;-77
2023/10/24 01:30:12;;;;;;;5.43;1.55;;;;;;;14.93;59.21;101224.97;5042483;28;20045;-78
2023/10/24 01:32:41;;;;;;;4.25;1.42;;;;;;;14.87;59.81;101221.41;5033207;28;20038;-76
2023/10/24 01:35:11;;;;;;;11.80;1.65;;;;;;;14.85;61.93;101227.44;5028346;28;20088;-84
2023/10/24 01:37:41;;;;;;;7.88;1.13;;;;;;;14.82;61.04;101227.38;5039447;28;20105;-75
2023/10/24 01:40:11;;;;;;;3.65;1.45;;;;;;;14.79;61.18;101222.97;5032177;28;20110;-77
2023/10/24 01:42:41;;;;;;;5.68;1.38;;;;;;;14.80;65.60;101237.78;5031056;28;20049;-77
2023/10/24 01:45:10;;;;;;;6.25;1.20;;;;;;;14.74;67.07;101242.84;5043454;28;20079;-76
2023/10/24 01:47:38;;;;;;;6.30;1.15;;;;;;;14.71;65.98;101237.59;5031536;28;20052;-78
2023/10/24 01:50:08;;;;;;;6.22;1.42;;;;;;;14.70;65.49;101241.03;5031786;28;20049;-77
2023/10/24 01:52:37;;;;;;;6.10;1.35;;;;;;;14.63;69.76;101236.53;5034883;28;20045;-76
2023/10/24 01:55:09;;;;;;;2.22;1.00;;;;;;;14.56;70.25;101230.31;5040475;28;20053;-77
2023/10/24 01:57:43;;;;;;;4.82;1.58;;;;;;;14.51;68.99;101226.72;5041000;28;20106;-77
2023/10/24 02:00:13;;;;;;;5.57;0.95;;;;;;;14.48;67.75;101242.28;5037882;28;20061;-77
2023/10/24 02:02:53;;;;;;;6.35;1.25;;;;;;;14.45;66.69;101243.09;5034397;28;20049;-77
2023/10/24 02:05:22;;;;;;;5.72;1.10;;;;;;;14.43;64.50;101237.00;5033138;28;20049;-76
2023/10/24 02:07:50;;;;;;;5.63;1.38;;;;;;;14.41;65.29;101246.47;5030794;28;20099;-76
2023/10/24 02:10:25;;;;;;;9.68;1.48;;;;;;;14.38;66.17;101256.81;5034153;28;20046;-76
2023/10/24 02:12:56;;;;;;;4.32;1.23;;;;;;;14.34;67.88;101252.41;5043762;28;20064;-77
2023/10/24 02:15:24;;;;;;;6.70;1.13;;;;;;;14.32;67.11;101261.03;5035425;28;20060;-77
2023/10/24 02:17:53;;;;;;;4.80;1.17;;;;;;;14.30;68.58;101266.19;5039358;28;20570;-77
2023/10/24 02:20:22;;;;;;;6.65;1.17;;;;;;;14.28;68.45;101260.06;5033336;28;20167;-78
2023/10/24 02:22:50;;;;;;;2.60;0.82;;;;;;;14.23;70.07;101259.09;5040417;28;20053;-77
2023/10/24 02:25:20;;;;;;;10.68;1.42;;;;;;;14.08;65.94;101254.41;5035964;28;20665;-77
2023/10/24 02:27:49;;;;;;;7.47;1.10;;;;;;;14.00;68.08;101264.66;5032659;28;20061;-77
2023/10/24 02:30:18;;;;;;;8.45;1.33;;;;;;;14.00;69.03;101279.38;5047912;28;20723;-77
2023/10/24 02:32:46;;;;;;;2.55;0.68;;;;;;;13.97;69.61;101277.59;5045396;28;20045;-77
2023/10/24 02:35:15;;;;;;;8.45;1.20;;;;;;;13.97;70.04;101280.19;5045601;28;20463;-76
2023/10/24 02:37:44;;;;;;;3.28;1.30;;;;;;;13.95;71.38;101275.78;5029953;28;20049;-77
2023/10/24 02:40:13;;;;;;;6.57;1.42;;;;;;;13.93;71.55;101280.97;5042493;28;20052;-77
2023/10/24 02:42:45;;;;;;;11.02;1.13;;;;;;;13.92;71.18;101284.38;5034051;28;20651;-77
2023/10/24 02:45:19;;;;;;;3.17;1.15;;;;;;;13.90;72.72;101278.25;5047281;28;20053;-78
2023/10/24 02:47:47;;;;;;;7.53;1.17;;;;;;;13.87;73.29;101273.00;5039899;28;20049;-77
2023/10/24 02:50:16;;;;;;;3.15;0.70;;;;;;;13.79;75.38;101259.81;5032904;28;20463;-77
2023/10/24 02:52:45;;;;;;;4.07;1.35;;;;;;;13.85;76.77;101271.19;5014829;28;20103;-77
2023/10/24 02:55:14;;;;;;;3.42;1.15;;;;;;;13.80;76.83;101269.34;5040499;28;20045;-78
2023/10/24 02:57:46;;;;;;;6.72;1.58;;;;;;;13.76;75.53;101269.25;5037308;28;20491;-77
2023/10/24 03:00:18;;;;;;;3.67;1.55;;;;;;;13.71;75.08;101265.66;5031720;28;20136;-79
2023/10/24 03:02:46;;;;;;;4.80;1.52;;;;;;;13.63;76.26;101252.47;5035646;28;20053;-76
2023/10/24 03:05:15;;;;;;;4.30;1.30;;;;;;;13.56;76.26;101261.84;5035397;28;20083;-77
2023/10/24 03:07:43;;;;;;;5.03;1.30;;;;;;;13.53;77.37;101246.16;5034936;28;20116;-77
2023/10/24 03:10:12;;;;;;;9.38;2.00;;;;;;;13.51;79.33;101242.63;5031363;28;20103;-78
2023/10/24 03:12:40;;;;;;;8.95;2.13;;;;;;;13.45;79.71;101239.03;5040378;28;20053;-77
2023/10/24 03:15:11;;;;;;;6.45;1.30;;;;;;;13.47;80.47;101240.81;5035994;28;20134;-79
2023/10/24 03:17:40;;;;;;;6.88;1.52;;;;;;;13.43;79.21;101236.38;5041502;28;20507;-77
2023/10/24 03:20:09;;;;;;;6.18;1.55;;;;;;;13.40;80.08;101244.97;5031836;28;20423;-77
2023/10/24 03:22:38;;;;;;;7.63;2.08;;;;;;;13.38;79.75;101245.78;5028499;28;20046;-77
2023/10/24 03:25:07;;;;;;;7.47;2.25;;;;;;;13.34;79.61;101247.41;5041945;28;20065;-76
2023/10/24 03:27:36;;;;;;;7.05;2.10;;;;;;;13.24;78.70;101247.97;5031282;28;20048;-77
2023/10/24 03:30:05;;;;;;;6.53;1.70;;;;;;;13.11;79.96;101261.47;5029174;28;20326;-76
2023/10/24 03:32:38;;;;;;;2.95;1.40;;;;;;;13.07;82.64;101255.31;5028614;28;20111;-76
2023/10/24 03:35:07;;;;;;;5.32;1.33;;;;;;;13.01;83.79;101252.56;5031353;28;20049;-74
2023/10/24 03:37:36;;;;;;;8.40;2.30;;;;;;;12.96;84.70;101260.22;5041406;28;20962;-76
2023/10/24 03:40:05;;;;;;;3.80;1.42;;;;;;;12.97;85.51;101269.78;5032394;28;20056;-75
2023/10/24 03:42:35;;;;;;;9.40;1.73;;;;;;;12.99;86.00;101277.63;5039937;28;20515;-77
2023/10/24 03:45:04;;;;;;;11.95;2.42;;;;;;;13.00;85.71;101276.75;5042620;28;20044;-78
2023/10/24 03:47:34;;;;;;;3.35;1.58;;;;;;;12.99;85.11;101267.22;5041435;28;20046;-77
2023/10/24 03:50:03;;;;;;;5.93;2.08;;;;;;;13.02;84.71;101269.03;5038088;28;20057;-77
2023/10/24 03:52:32;;;;;;;3.58;1.67;;;;;;;13.02;84.05;101269.91;5030829;28;20053;-76
2023/10/24 03:55:01;;;;;;;8.38;1.77;;;;;;;13.02;84.01;101262.09;5029096;28;20065;-75
2023/10/24 03:57:29;;;;;;;8.73;1.58;;;;;;;13.04;84.38;101269.94;5031177;28;20057;-76
2023/10/24 03:59:58;;;;;;;6.40;1.80;;;;;;;13.03;83.44;101263.84;5038259;28;20772;-76
2023/10/24 04:02:29;;;;;;;9.10;1.75;;;;;;;13.02;83.32;101267.31;5029446;28;20319;-76
2023/10/24 04:05:00;;;;;;;8.63;1.92;;;;;;;13.00;85.58;101269.84;5044078;28;20215;-75
2023/10/24 04:07:28;;;;;;;4.47;1.80;;;;;;;12.98;85.04;101276.72;5036149;28;20151;-76
2023/10/24 04:10:01;;;;;;;6.13;1.63;;;;;;;12.94;80.52;101276.59;5032831;28;20057;-77
2023/10/24 04:12:30;;;;;;;10.32;2.20;;;;;;;12.93;85.74;101267.03;5045168;28;20475;-77
2023/10/24 04:15:03;;;;;;;6.95;1.95;;;;;;;12.92;85.62;101271.38;5039024;28;20053;-77
2023/10/24 04:17:32;;;;;;;8.32;2.28;;;;;;;12.91;86.71;101272.19;5033300;28;20077;-78
2023/10/24 04:20:02;;;;;;;9.15;2.58;;;;;;;12.85;86.66;101255.53;5036805;28;20056;-77
2023/10/24 04:22:31;;;;;;;6.57;1.88;;;;;;;12.78;85.88;101255.41;5030016;28;20442;-77
2023/10/24 04:24:59;;;;;;;7.80;1.75;;;;;;;12.75;85.32;101250.09;5027947;28;20057;-77
2023/10/24 04:27:28;;;;;;;8.07;2.28;;;;;;;12.75;84.92;101244.03;5039689;28;20491;-78
2023/10/24 04:29:57;;;;;;;6.45;2.47;;;;;;;12.73;83.83;101245.69;5028148;28;20045;-78
2023/10/24 04:32:25;;;;;;;6.88;1.90;;;;;;;12.65;80.25;101248.09;5035633;28;20037;-78
2023/10/24 04:34:54;;;;;;;4.57;1.85;;;;;;;12.62;80.86;101250.59;5038450;28;20127;-77
2023/10/24 04:37:24;;;;;;;5.68;1.67;;;;;;;12.62;80.12;101258.38;5037412;28;20270;-77
2023/10/24 04:39:54;;;;;;;8.65;1.98;;;;;;;12.62;79.95;101261.00;5038446;28;20072;-78
2023/10/24 04:42:23;;;;;;;7.90;1.75;;;;;;;12.62;80.88;101250.59;5032772;28;20041;-78
2023/10/24 04:44:53;;;;;;;8.63;2.38;;;;;;;12.63;81.35;101257.53;5030451;28;20045;-79
2023/10/24 04:47:22;;;;;;;8.73;1.70;;;;;;;12.62;81.62;101258.38;5037831;28;20052;-78
2023/10/24 04:49:50;;;;;;;8.93;2.28;;;;;;;12.63;82.11;101256.66;5038160;28;20099;-78
2023/10/24 04:52:23;;;;;;;6.50;1.55;;;;;;;12.60;82.52;101273.03;5041812;28;20049;-78
2023/10/24 04:54:52;;;;;;;7.38;1.85;;;;;;;12.60;82.89;101277.31;5033466;28;20426;-78
2023/10/24 04:57:20;;;;;;;8.77;2.05;;;;;;;12.58;83.91;101279.91;5036727;28;20049;-79
2023/10/24 04:59:51;;;;;;;8.18;1.85;;;;;;;12.55;83.81;101278.09;5041688;28;20592;-79
2023/10/24 05:02:20;;;;;;;6.50;2.50;;;;;;;12.52;83.69;101277.09;5031519;28;20050;-78
2023/10/24 05:04:48;;;;;;;13.70;2.65;;;;;;;12.52;84.41;101284.91;5041758;28;20052;-79
2023/10/24 05:07:17;;;;;;;16.50;3.63;;;;;;;12.49;84.56;101277.91;5035071;28;20430;-78
2023/10/24 05:09:47;;;;;;;9.60;2.17;;;;;;;12.46;86.04;101282.09;5039795;28;20052;-79
2023/10/24 05:12:16;;;;;;;10.25;2.15;;;;;;;12.42;87.10;101278.56;5041764;28;20049;-78
2023/10/24 05:14:47;;;;;;;6.68;2.70;;;;;;;12.39;87.26;101278.44;5035707;28;20057;-77
2023/10/24 05:17:16;;;;;;;8.85;2.97;;;;;;;12.36;88.02;101281.81;5043231;28;20518;-78
2023/10/24 05:19:45;;;;;;;7.40;2.85;;;;;;;12.33;88.89;101270.50;5032544;28;20132;-78
2023/10/24 05:22:45;;;;;;;11.25;3.90;;;;;;;12.31;89.07;101291.19;5031821;28;20504;-77
2023/10/24 05:25:40;;;;;;;7.78;3.55;;;;;;;12.30;89.46;101289.44;5036178;28;20146;-77
2023/10/24 05:39:01;;;;;;;;;;;;;;;;;;;;;
2023/10/24 05:45:03;;;;;;;8.55;2.13;;;;;;;12.12;90.11;101281.09;4967873;28;20047;-79
2023/10/24 05:47:55;;;;;;;4.55;1.70;;;;;;;12.06;88.92;101267.91;4966549;28;20058;-80
2023/10/24 05:51:04;;;;;;;5.75;1.63;;;;;;;12.08;88.44;101274.03;5020616;28;20716;-79
2023/10/24 05:53:41;;;;;;;5.78;1.90;;;;;;;12.05;88.26;101277.41;4967069;28;20126;-78
2023/10/24 05:56:53;;;;;;;3.13;1.65;;;;;;;12.08;88.92;101272.31;4959484;28;20055;-77
2023/10/24 05:59:58;;;;;;;7.82;2.28;;;;;;;12.09;87.53;101265.41;4966223;28;20527;-79
2023/10/24 06:03:26;;;;;;;6.32;2.28;;;;;;;12.10;88.34;101274.97;4968871;28;20039;-80
2023/10/24 06:09:38;;;;;;;9.98;1.88;;;;;;;12.10;89.79;101275.84;4904682;28;20086;-77
2023/10/24 06:12:56;;;;;;;11.38;2.78;;;;;;;12.11;89.77;101264.63;5039055;28;20053;-78
2023/10/24 06:19:20;;;;;;;9.05;2.30;;;;;;;12.09;91.17;101273.19;5027493;28;20098;-78
2023/10/24 06:25:00;;;;;;;5.55;1.65;;;;;;;12.08;90.42;101271.44;4999426;28;20109;-78
2023/10/24 06:31:28;;;;;;;6.65;1.88;;;;;;;12.05;90.43;101279.09;5022841;28;20049;-79
2023/10/24 06:34:32;;;;;;;9.68;2.30;;;;;;;12.04;90.69;101277.34;5011711;28;20065;-79
2023/10/24 06:37:34;;;;;;;8.40;2.20;;;;;;;12.03;91.04;101273.03;5047297;28;20321;-80
2023/10/24 06:40:41;;;;;;;9.80;2.58;;;;;;;12.02;90.90;101279.91;5045413;28;20051;-79
2023/10/24 06:43:20;;;;;;;7.72;2.80;;;;;;;12.03;91.91;101285.97;5010861;28;20045;-78
2023/10/24 06:46:44;;;;;;;9.55;2.83;;;;;;;12.02;91.72;101284.22;5044996;28;20053;-79
2023/10/24 06:49:35;;;;;;;13.15;3.10;;;;;;;12.00;91.33;101278.09;5013610;28;20056;-78
2023/10/24 06:55:14;;;;;;;3.67;2.38;;;;;;;11.88;92.93;101289.81;4909000;29;20543;-79
2023/10/24 06:57:43;;;;;;;5.60;1.95;;;;;;;11.87;93.92;101288.06;5035472;28;20878;-78
2023/10/24 07:00:16;;;;;;;8.57;2.78;;;;;;;11.88;92.93;101283.75;5042460;28;20637;-79
2023/10/24 07:02:47;;;;;;;12.82;2.72;;;;;;;11.85;92.93;101273.28;5043387;28;20049;-79
2023/10/24 07:06:03;;;;;;;9.95;2.30;;;;;;;11.80;93.42;101270.53;5038412;28;20077;-79
2023/10/24 07:11:57;;;;;;;8.75;3.00;;;;;;;11.77;93.74;101285.97;5027411;28;20064;-79
2023/10/24 07:14:45;;;;;;;8.68;2.30;;;;;;;11.76;93.85;101279.03;5042146;28;20052;-78
2023/10/24 07:17:13;;;;;;;10.05;2.88;;;;;;;11.77;94.65;101279.91;5026188;28;20044;-80
2023/10/24 07:19:42;;;;;;;6.28;2.53;;;;;;;11.76;95.21;101284.22;5043939;28;20047;-79
2023/10/24 07:22:21;;;;;;;12.90;3.15;;;;;;;11.74;94.84;101283.28;5045491;28;20045;-79
2023/10/24 07:24:49;;;;;;;10.25;2.55;;;;;;;11.66;94.25;101271.75;5044428;28;20049;-79
2023/10/24 07:28:00;;;;;;;5.20;2.45;;;;;;;11.65;95.28;101282.97;5045877;28;20049;-80
2023/10/24 07:34:29;;;;;;;;;;;;;;;;;;;;;
2023/10/24 07:38:14;;;;;;;7.28;2.33;;;;;;;11.66;96.06;101296.00;5039181;28;20049;-80
2023/10/24 07:41:22;;;;;;;7.45;2.00;;;;;;;11.67;96.21;101289.97;5039979;28;20050;-79
2023/10/24 07:43:51;;;;;;;4.93;2.00;;;;;;;11.64;96.87;101278.63;5007708;28;20057;-80
2023/10/24 07:49:18;;;;;;;3.97;2.00;;;;;;;11.62;96.69;101295.84;5034822;28;20057;-78
2023/10/24 07:51:46;;;;;;;7.38;2.33;;;;;;;11.62;96.88;101291.53;5043250;28;20648;-79
2023/10/24 07:54:17;;;;;;;4.10;1.98;;;;;;;11.64;96.23;101291.59;5038023;28;20135;-78
2023/10/24 07:56:45;;;;;;;5.57;2.00;;;;;;;11.66;96.66;101289.91;5048018;28;20498;-78
2023/10/24 07:59:14;;;;;;;7.18;2.25;;;;;;;11.67;95.96;101289.09;5046948;28;20056;-79
2023/10/24 08:01:50;;;;;;;9.02;2.00;;;;;;;11.67;95.54;101292.56;5047329;28;20053;-79
2023/10/24 08:04:20;;;;;;;6.50;2.00;;;;;;;11.67;95.68;101286.50;5044235;28;20037;-79
2023/10/24 08:06:48;;;;;;;9.38;2.10;;;;;;;11.68;95.25;101286.56;5048250;28;20427;-80
2023/10/24 08:09:18;;;;;;;9.90;2.05;;;;;;;11.69;94.47;101287.44;5043426;28;20064;-79
2023/10/24 08:11:54;;;;;;;2.15;1.40;;;;;;;11.68;94.69;101290.84;5038958;28;20051;-79
2023/10/24 08:14:28;;;;;;;9.63;1.80;;;;;;;11.69;94.42;101290.91;5038090;28;20052;-79
2023/10/24 08:16:58;;;;;;;9.68;1.73;;;;;;;11.69;94.35;101290.03;5040276;28;20486;-79
2023/10/24 08:19:26;;;;;;;4.40;2.28;;;;;;;11.70;94.14;101276.22;5041942;28;20109;-79
2023/10/24 08:21:55;;;;;;;6.68;1.50;;;;;;;11.67;94.10;101276.13;5043457;28;20100;-79
2023/10/24 08:24:25;;;;;;;3.63;1.63;;;;;;;11.67;94.38;101286.50;5043615;28;20053;-78
2023/10/24 08:26:53;;;;;;;8.60;1.73;;;;;;;11.65;95.06;101291.63;5043534;28;20550;-79
2023/10/24 08:29:22;;;;;;;6.05;1.92;;;;;;;11.65;95.28;101299.41;5049810;28;20044;-79
2023/10/24 08:31:50;;;;;;;3.25;1.48;;;;;;;11.65;94.79;101317.53;5041910;28;20491;-79
2023/10/24 08:34:19;;;;;;;8.73;1.75;;;;;;;11.64;95.30;101309.72;5054117;28;20041;-78
2023/10/24 08:36:48;;;;;;;6.30;1.58;;;;;;;11.61;95.35;101307.03;5052073;28;20045;-79
2023/10/24 08:39:17;;;;;;;6.60;1.70;;;;;;;11.56;95.76;101293.03;5064857;28;20056;-79
2023/10/24 08:41:53;;;;;;;7.25;1.73;;;;;;;11.51;95.96;101290.28;5048866;28;20096;-79
2023/10/24 08:44:22;;;;;;;5.60;1.90;;;;;;;11.50;95.90;101280.75;5037892;28;20080;-78
2023/10/24 08:46:51;;;;;;;10.27;1.67;;;;;;;11.49;95.93;101272.06;5044633;28;20072;-79
2023/10/24 08:49:21;;;;;;;10.32;2.03;;;;;;;11.45;96.05;101265.06;5039676;28;20752;-79
2023/10/24 08:51:49;;;;;;;2.25;1.30;;;;;;;11.46;96.48;101274.56;5040047;28;20656;-79
2023/10/24 08:54:20;;;;;;;2.10;1.38;;;;;;;11.46;96.19;101284.94;5040595;28;20051;-79
2023/10/24 08:56:52;;;;;;;9.07;2.13;;;;;;;11.44;96.48;101281.41;5044274;28;20110;-80
2023/10/24 08:59:22;;;;;;;8.23;1.60;;;;;;;11.38;96.69;101286.38;5044248;28;20072;-79
2023/10/24 09:01:51;;;;;;;6.93;1.88;;;;;;;11.37;97.14;101295.00;5042076;28;20100;-79
2023/10/24 09:04:27;;;;;;;7.22;2.00;;;;;;;11.37;97.77;101300.16;5042159;28;20076;-79
2023/10/24 09:06:56;;;;;;;8.13;1.75;;;;;;;11.38;98.21;101288.09;5043394;28;20049;-79
2023/10/24 09:09:25;;;;;;;5.13;1.60;;;;;;;11.37;97.89;101289.81;5042639;28;20107;-79
2023/10/24 09:11:58;;;;;;;5.50;2.05;;;;;;;11.34;98.37;101292.31;5038527;28;20514;-79
2023/10/24 09:14:26;;;;;;;;;;;;;;;11.36;98.73;101297.50;5046692;28;20048;-79
2023/10/24 09:16:59;;;;;;;6.25;1.98;;;;;;;11.35;98.90;101270.72;5042679;28;19928;-80
2023/10/24 09:19:29;;;;;;;6.45;1.13;;;;;;;11.32;99.25;101249.91;5038085;28;20041;-79
2023/10/24 09:22:00;;;;;;;5.25;1.52;;;;;;;11.27;99.42;101262.72;5043617;28;20115;-79
2023/10/24 09:24:29;;;;;;;6.40;2.13;;;;;;;11.19;100.00;101255.50;5041001;28;20044;-79
2023/10/24 09:26:59;;;;;;;18.40;2.08;;;;;;;11.13;100.00;101257.84;5042341;28;20111;-78
2023/10/24 09:29:29;;;;;;;7.25;1.65;;;;;;;11.14;100.00;101249.28;5041134;28;20108;-80
2023/10/24 09:31:58;;;;;;;4.85;1.75;;;;;;;11.15;100.00;101254.50;5042068;28;20130;-78
2023/10/24 09:34:28;;;;;;;4.18;1.50;;;;;;;11.17;100.00;101249.38;5036261;28;20064;-79
2023/10/24 09:37:07;;;;;;;8.05;1.80;;;;;;;11.16;100.00;101247.63;5036257;28;20045;-79
2023/10/24 09:39:55;;;;;;;6.30;1.58;;;;;;;11.16;100.00;101232.09;5039685;28;20533;-80
2023/10/24 09:42:31;;;;;;;4.80;1.65;;;;;;;11.11;100.00;101225.03;5036819;28;20037;-80
2023/10/24 09:45:00;;;;;;;8.35;1.90;;;;;;;11.03;100.00;101236.81;5041876;28;20049;-81
2023/10/24 09:47:29;;;;;;;7.25;1.80;;;;;;;10.97;100.00;101228.84;5042256;28;20049;-79
2023/10/24 09:49:58;;;;;;;7.72;1.63;;;;;;;10.95;100.00;101227.00;5037757;28;20050;-79
2023/10/24 09:52:28;;;;;;;3.45;1.60;;;;;;;10.97;100.00;101227.94;5037508;28;20510;-80
2023/10/24 09:54:57;;;;;;;9.82;1.73;;;;;;;10.99;100.00;101224.56;5045533;28;20043;-79
2023/10/24 09:57:30;;;;;;;5.38;1.80;;;;;;;11.03;100.00;101230.75;5041560;28;20045;-79
2023/10/24 10:00:00;;;;;;;7.75;2.00;;;;;;;11.02;100.00;101224.72;5042019;28;20146;-80
2023/10/24 10:02:29;;;;;;;6.38;1.83;;;;;;;11.04;100.00;101219.56;5041199;28;21172;-79
2023/10/24 10:04:58;;;;;;;5.20;1.33;;;;;;;11.06;100.00;101215.31;5043739;28;20135;-80
2023/10/24 10:07:27;;;;;;;4.00;1.38;;;;;;;11.06;100.00;101217.91;5043678;28;20101;-81
2023/10/24 10:10:00;;;;;;;4.80;1.83;;;;;;;11.07;100.00;101233.50;5040813;28;20103;-80
2023/10/24 10:12:31;;;;;;;;;;;;;;;11.07;100.00;101225.75;5044119;28;20075;-80
2023/10/24 10:15:37;;;;;;;5.72;1.67;;;;;;;11.08;100.00;101219.72;5042652;28;20366;-79
2023/10/24 10:18:17;;;;;;;4.85;1.25;;;;;;;11.11;100.00;101198.25;5041849;28;20055;-79
2023/10/24 10:20:55;;;;;;;15.57;1.80;;;;;;;11.12;100.00;101194.81;5041637;28;20045;-78
2023/10/24 10:23:51;;;;;;;8.13;1.60;;;;;;;11.14;100.00;101205.25;5038562;28;20534;-79
2023/10/24 10:26:24;;;;;;;6.47;1.60;;;;;;;11.15;100.00;101204.41;5044128;28;20072;-79
2023/10/24 10:29:05;;;;;;;7.18;1.25;;;;;;;11.16;100.00;101201.88;5043389;28;20040;-79
2023/10/24 10:31:49;;;;;;;7.05;1.52;;;;;;;11.10;100.00;101189.59;5044860;28;20103;-79
2023/10/24 10:34:17;;;;;;;5.32;1.52;;;;;;;11.06;100.00;101182.56;5037708;28;20053;-79
2023/10/24 10:36:56;;;;;;;9.48;1.63;;;;;;;11.01;100.00;101181.50;5037442;28;20060;-79
2023/10/24 10:39:32;;;;;;;4.95;1.90;;;;;;;10.98;100.00;101181.41;5045264;28;20045;-79
2023/10/24 10:42:01;;;;;;;7.80;2.13;;;;;;;10.95;100.00;101176.13;5043742;28;20441;-79
2023/10/24 10:44:51;;;;;;;5.00;2.05;;;;;;;10.95;100.00;101188.16;5039021;28;20056;-79
2023/10/24 10:47:25;;;;;;;7.47;1.70;;;;;;;10.93;100.00;101185.53;5047692;28;20049;-80
2023/10/24 10:50:03;;;;;;;11.73;1.40;;;;;;;10.91;100.00;101184.63;5063319;28;20097;-79
2023/10/24 10:52:49;;;;;;;6.03;1.58;;;;;;;10.88;100.00;101179.31;5067380;28;20084;-80
2023/10/24 10:55:32;;;;;;;3.17;1.58;;;;;;;10.84;100.00;101177.47;5057999;28;20123;-80
2023/10/24 10:58:11;;;;;;;3.65;1.17;;;;;;;10.84;100.00;101160.22;5039417;28;20538;-79
2023/10/24 11:01:01;;;;;;;4.43;1.13;;;;;;;10.83;100.00;101154.97;5048233;28;20045;-79
2023/10/24 11:03:41;;;;;;;9.48;1.35;;;;;;;10.83;100.00;101149.78;5047763;28;20087;-80
2023/10/24 11:06:11;;;;;;;5.20;1.33;;;;;;;10.82;100.00;101148.06;5041276;28;20053;-80
2023/10/24 11:08:41;;;;;;;4.93;1.20;;;;;;;10.85;100.00;101141.25;5041685;28;20045;-78
2023/10/24 11:11:11;;;;;;;5.78;1.88;;;;;;;10.87;100.00;101151.66;5045831;28;20049;-78
2023/10/24 11:13:44;;;;;;;2.78;1.08;;;;;;;10.88;100.00;101143.06;5046863;28;20040;-79
2023/10/24 11:16:15;;;;;;;6.25;1.85;;;;;;;10.84;100.00;101141.22;5045806;28;20052;-80
2023/10/24 11:18:44;;;;;;;8.60;2.10;;;;;;;10.84;100.00;101136.91;5043013;28;20040;-80
2023/10/24 11:21:12;;;;;;;2.78;1.23;;;;;;;10.75;100.00;101127.97;5040827;28;20429;-80
2023/10/24 11:23:43;;;;;;;3.80;1.15;;;;;;;10.86;100.00;101148.22;5043535;28;20406;-79
2023/10/24 11:26:12;;;;;;;3.72;1.20;;;;;;;10.88;100.00;101150.81;5041721;28;20060;-81
2023/10/24 11:28:40;;;;;;;3.70;1.30;;;;;;;10.88;100.00;101154.31;5041302;28;20215;-80
2023/10/24 11:31:27;;;;;;;4.55;1.17;;;;;;;10.89;100.00;101163.84;5043763;28;20045;-80
2023/10/24 11:33:56;;;;;;;4.80;1.25;;;;;;;10.89;100.00;101160.38;5043325;28;20053;-79
2023/10/24 11:36:26;;;;;;;6.63;2.08;;;;;;;10.92;100.00;101154.41;5041717;28;20641;-79
2023/10/24 11:38:58;;;;;;;6.13;1.50;;;;;;;10.91;100.00;101150.94;5047853;28;20048;-80
2023/10/24 11:41:28;;;;;;;5.35;1.52;;;;;;;10.93;100.00;101151.91;5045746;28;20044;-79
2023/10/24 11:43:56;;;;;;;10.95;1.52;;;;;;;10.94;100.00;101147.59;5043630;28;20041;-79
2023/10/24 11:46:27;;;;;;;5.22;0.93;;;;;;;10.92;100.00;101154.41;5042621;28;20064;-78
2023/10/24 11:48:55;;;;;;;7.82;2.53;;;;;;;10.89;100.00;101156.06;5042308;28;20076;-79
2023/10/24 11:51:25;;;;;;;3.55;1.30;;;;;;;10.89;100.00;101160.38;5040197;28;20525;-79
2023/10/24 11:54:03;;;;;;;4.97;1.20;;;;;;;10.90;100.00;101157.84;5042468;28;20040;-79
2023/10/24 11:56:42;;;;;;;5.72;1.98;;;;;;;10.93;100.00;101154.47;5045617;28;20072;-80
2023/10/24 11:59:13;;;;;;;4.85;1.13;;;;;;;10.92;100.00;101150.13;5046696;28;20564;-80
2023/10/24 12:01:46;;;;;;;5.60;1.35;;;;;;;10.91;100.00;101140.59;5040635;28;20049;-79
2023/10/24 12:04:15;;;;;;;3.17;1.02;;;;;;;10.87;100.00;101121.47;5039657;28;20049;-80
2023/10/24 12:06:43;;;;;;;3.75;1.15;;;;;;;10.81;100.00;101115.22;5036761;28;20045;-80
2023/10/24 12:09:13;;;;;;;5.97;1.88;;;;;;;10.77;100.00;101113.38;5045444;28;20064;-79
2023/10/24 12:11:42;;;;;;;2.83;0.93;;;;;;;10.71;100.00;101106.25;5040657;28;20760;-80
2023/10/24 12:14:11;;;;;;;1.45;1.08;;;;;;;10.66;100.00;101095.75;5038624;28;20454;-78
2023/10/24 12:16:41;;;;;;;4.93;1.52;;;;;;;10.62;100.00;101083.53;5034694;28;20590;-79
2023/10/24 12:19:14;;;;;;;6.50;1.00;;;;;;;10.58;100.00;101080.78;5040114;28;20049;-79
2023/10/24 12:21:43;;;;;;;3.42;2.05;;;;;;;10.55;100.00;101084.13;5045851;28;20057;-80
2023/10/24 12:24:12;;;;;;;3.28;1.35;;;;;;;10.51;100.00;101084.84;5044290;28;20071;-79
2023/10/24 12:26:48;;;;;;;3.33;1.45;;;;;;;10.55;100.00;101091.91;5040916;28;20419;-79
2023/10/24 12:29:18;;;;;;;5.25;1.48;;;;;;;10.51;100.00;101071.91;5041759;28;20073;-78
2023/10/24 12:31:47;;;;;;;5.47;1.83;;;;;;;10.61;100.00;101061.06;5036240;28;20144;-78
2023/10/24 12:34:17;;;;;;;4.80;1.42;;;;;;;10.63;100.00;101056.84;5044685;28;20054;-78
2023/10/24 12:36:46;;;;;;;3.22;1.17;;;;;;;10.64;100.00;101058.56;5042659;28;20774;-78